Sea Reliance — WEOB — position and weather

sailwx.info

Track history (hours):
 
Tides and Currents Weather Stations Pressure Air Temp Water Temp Dewpoint Dewpoint Depression Visibility Wind Speed Wind Dir Waves Ship Positions

Sea Reliance

Owner: Intrepid Ship Management, Seattle, WA. More information available from US FCC via Universal Licensing System and Coast Guard Vessel Documentation Center.

Last reported at 2017-Nov-25 04:00 UTC. Time now 2017-Nov-25 04:18 UTC.
Position N 33°41' W 119°52'.

Type: Ship. MMSI: 369567000.

Date/timePositionNaut miles runAvg speedWind from/ knotsBaromVisibWave heightAir tempDewpointWater temp
2017-Nov-25 04:00N 33°41' W 119°52'4 8.0
2017-Nov-25 03:30N 33°42' W 119°57'4 8.2
2017-Nov-25 03:00N 33°42' W 120°02'4 8.9
2017-Nov-25 02:30N 33°43' W 120°07'4 8.4
2017-Nov-25 02:00N 33°43' W 120°12'4 8.1
2017-Nov-25 01:30N 33°43' W 120°17'4 7.8
2017-Nov-25 01:00N 33°44' W 120°21'4 7.8
2017-Nov-25 00:30N 33°44' W 120°26'4 8.4
2017-Nov-25 00:00N 33°44' W 120°31'4 8.1
2017-Nov-24 23:30N 33°45' W 120°36'4 8.2
2017-Nov-24 23:00N 33°45' W 120°41'4 8.1
2017-Nov-24 22:30N 33°46' W 120°46'4 8.3
2017-Nov-24 21:59N 33°46' W 120°51'4 8.4
2017-Nov-24 21:30N 33°48' W 120°56'4 8.3
2017-Nov-24 21:00N 33°49' W 121°00'5 9.5
2017-Nov-24 20:28N 33°50' W 121°06'4 8.6
2017-Nov-24 20:00N 33°51' W 121°11'4 8.7
2017-Nov-24 19:30N 33°52' W 121°16'4 8.6
2017-Nov-24 18:59N 33°53' W 121°21'4 8.4
2017-Nov-24 18:29N 33°54' W 121°26'4 8.1
2017-Nov-24 18:00N 33°56' W 121°30'5 8.8
2017-Nov-24 17:28N 33°60' W 121°33'4 8.4
2017-Nov-24 17:00N 34°03' W 121°36'4 8.2
2017-Nov-24 16:30N 34°07' W 121°38'4 8.3
2017-Nov-24 16:00N 34°10' W 121°41'4 8.1
2017-Nov-24 15:30N 34°14' W 121°43'4 8.1
2017-Nov-24 15:00N 34°17' W 121°45'4 8.0
2017-Nov-24 14:30N 34°21' W 121°48'4 8.4
2017-Nov-24 13:59N 34°24' W 121°51'4 8.6
2017-Nov-24 13:30N 34°28' W 121°53'6 8.4
2017-Nov-24 12:50N 34°33' W 121°56'3 8.2
2017-Nov-24 12:30N 34°35' W 121°58'7 8.2
2017-Nov-24 11:41N 34°41' W 122°02'32 8.8
2017-Nov-24 08:01N 35°09' W 122°22'10 8.8
2017-Nov-24 06:50N 35°18' W 122°28'3 8.8
2017-Nov-24 06:29N 35°21' W 122°30'4 8.8
2017-Nov-24 06:00N 35°24' W 122°33'21 8.8
2017-Nov-24 03:37N 35°42' W 122°46'1 9.2
2017-Nov-24 03:30N 35°43' W 122°47'4 8.9
2017-Nov-24 03:00N 35°47' W 122°49'4 9.0
2017-Nov-24 02:30N 35°51' W 122°52'4 9.0
2017-Nov-24 02:00N 35°55' W 122°55'5 9.1
2017-Nov-24 01:30N 35°59' W 122°57'5 9.2
2017-Nov-24 01:00N 36°03' W 122°60'5 9.1
2017-Nov-24 00:29N 36°07' W 123°02'4 8.8
2017-Nov-24 00:00N 36°11' W 123°05'22 8.9
2017-Nov-23 21:32N 36°31' W 123°16'0 8.9
2017-Nov-23 21:30N 36°31' W 123°16'6 8.6
2017-Nov-23 20:51N 36°36' W 123°19'3 8.4
2017-Nov-23 20:30N 36°39' W 123°21'4 8.5
2017-Nov-23 19:59N 36°43' W 123°23'4 8.8
2017-Nov-23 19:30N 36°47' W 123°25'4 8.7
2017-Nov-23 19:00N 36°51' W 123°27'4 8.6
2017-Nov-23 18:30N 36°55' W 123°30'6 8.5
2017-Nov-23 17:50N 36°60' W 123°26'4 8.3
2017-Nov-23 17:25N 37°03' W 123°24'3 8.2
2017-Nov-23 17:00N 37°06' W 123°22'4 8.5
2017-Nov-23 16:30N 37°10' W 123°21'11 8.6
2017-Nov-23 15:16N 37°19' W 123°14'2 8.5
2017-Nov-23 15:00N 37°21' W 123°13'5 8.7
2017-Nov-23 14:29N 37°25' W 123°10'4 8.4
2017-Nov-23 14:00N 37°29' W 123°08'4 8.5
2017-Nov-23 13:30N 37°32' W 123°05'4 8.4
2017-Nov-23 13:00N 37°35' W 123°01'4 8.5
2017-Nov-23 12:30N 37°38' W 122°57'4 8.3
2017-Nov-23 12:00N 37°40' W 122°52'5 8.4
2017-Nov-23 11:24N 37°43' W 122°47'3 8.3
2017-Nov-23 11:00N 37°45' W 122°43'4 8.2
2017-Nov-23 10:30N 37°46' W 122°39'510.2
2017-Nov-23 10:00N 37°48' W 122°33'5 9.5
2017-Nov-23 09:30N 37°50' W 122°27'4 8.8
2017-Nov-23 09:00N 37°48' W 122°22'2 4.6
2017-Nov-23 08:31N 37°46' W 122°20'0 0.0
2017-Nov-23 08:00N 37°46' W 122°20'0 0.0
2017-Nov-23 07:30N 37°46' W 122°20'0 0.0
2017-Nov-23 07:00N 37°46' W 122°20'0 0.0
2017-Nov-23 06:31N 37°46' W 122°20'0 0.1
2017-Nov-23 06:01N 37°46' W 122°20'0 0.2
2017-Nov-23 05:30N 37°46' W 122°21'0 0.3
2017-Nov-23 05:00N 37°46' W 122°20'0 0.0
2017-Nov-23 04:30N 37°46' W 122°20'0 0.0
2017-Nov-23 04:00N 37°46' W 122°20'0 0.0
2017-Nov-23 03:30N 37°46' W 122°20'0 0.0
2017-Nov-23 03:00N 37°46' W 122°20'0 0.0
2017-Nov-23 02:30N 37°46' W 122°20'0 0.0
2017-Nov-23 02:00N 37°46' W 122°20'0 0.0
2017-Nov-23 01:30N 37°46' W 122°20'0 0.0
2017-Nov-23 01:00N 37°46' W 122°20'0 0.0
2017-Nov-23 00:31N 37°46' W 122°20'0 0.0
2017-Nov-23 00:00N 37°46' W 122°20'3 7.0
2017-Nov-22 23:31N 37°49' W 122°23'5 9.9
2017-Nov-22 23:00N 37°53' W 122°26'5 9.6
2017-Nov-22 22:30N 37°58' W 122°26'5 9.3
2017-Nov-22 22:00N 38°02' W 122°22'4 8.8
2017-Nov-22 21:30N 38°03' W 122°17'5 6.8
2017-Nov-22 20:49N 38°03' W 122°11'2 6.6
2017-Nov-22 20:29N 38°02' W 122°09'  
2017-Nov-20 00:30N 35°30' W 122°37'510.8
2017-Nov-20 00:00N 35°25' W 122°34'510.9
2017-Nov-19 23:30N 35°21' W 122°31'510.8
2017-Nov-19 23:00N 35°16' W 122°27'510.8
2017-Nov-19 22:30N 35°11' W 122°24'510.6
2017-Nov-19 22:00N 35°07' W 122°20'510.8
2017-Nov-19 21:30N 35°02' W 122°17'511.0
2017-Nov-19 21:00N 34°57' W 122°14'511.0
2017-Nov-19 20:30N 34°53' W 122°11'510.8
2017-Nov-19 20:01N 34°48' W 122°07'611.1
2017-Nov-19 19:30N 34°43' W 122°04'611.7
2017-Nov-19 19:00N 34°38' W 122°00'611.6
2017-Nov-19 18:30N 34°33' W 121°57'611.6
2017-Nov-19 17:59N 34°28' W 121°53'611.9
2017-Nov-19 17:30N 34°23' W 121°50'611.8
2017-Nov-19 17:00N 34°18' W 121°46'611.6
2017-Nov-19 16:29N 34°13' W 121°42'611.8
2017-Nov-19 16:00N 34°08' W 121°39'611.1
2017-Nov-19 15:30N 34°04' W 121°33'611.5
2017-Nov-19 15:00N 34°02' W 121°27'611.5
2017-Nov-19 14:30N 33°59' W 121°21'611.3
2017-Nov-19 14:00N 33°56' W 121°15'611.1
2017-Nov-19 13:28N 33°54' W 121°09'611.3
2017-Nov-19 12:57N 33°51' W 121°03'511.2
2017-Nov-19 12:30N 33°49' W 120°57'611.1
2017-Nov-19 12:00N 33°47' W 120°51'510.9
2017-Nov-19 11:30N 33°46' W 120°45'611.0
2017-Nov-19 11:00N 33°46' W 120°38'611.3
2017-Nov-19 10:29N 33°45' W 120°31'611.6
2017-Nov-19 10:00N 33°45' W 120°24'611.8
2017-Nov-19 09:30N 33°45' W 120°17'611.2
2017-Nov-19 09:00N 33°44' W 120°10'611.7
2017-Nov-19 08:29N 33°44' W 120°03'511.5
2017-Nov-19 08:00N 33°43' W 119°57'612.4
2017-Nov-19 07:30N 33°43' W 119°49'612.4
2017-Nov-19 07:00N 33°42' W 119°42'612.0
2017-Nov-19 06:29N 33°42' W 119°34'611.9
2017-Nov-19 06:00N 33°42' W 119°27'612.0
2017-Nov-19 05:30N 33°42' W 119°20'611.7
2017-Nov-19 04:57N 33°41' W 119°12'511.6
2017-Nov-19 04:29N 33°41' W 119°06'611.8
2017-Nov-19 04:00N 33°40' W 118°59'611.9
2017-Nov-19 03:30N 33°40' W 118°52'611.6
2017-Nov-19 02:57N 33°39' W 118°44'511.2
2017-Nov-19 02:30N 33°39' W 118°38'811.3
2017-Nov-19 01:45N 33°38' W 118°28'310.8
2017-Nov-19 01:30N 33°38' W 118°25'510.7
2017-Nov-19 01:00N 33°38' W 118°18'510.6
2017-Nov-19 00:30N 33°43' W 118°15'3 6.3
2017-Nov-19 00:00N 33°45' W 118°17'6 0.1
2017-Nov-17 09:20N 33°40' W 118°15'3 8.7
2017-Nov-17 09:00N 33°37' W 118°16'5 9.2
2017-Nov-17 08:30N 33°36' W 118°22'510.6
2017-Nov-17 08:00N 33°36' W 118°28'510.4
2017-Nov-17 07:30N 33°36' W 118°34'510.2
2017-Nov-17 07:00N 33°36' W 118°40'510.4
2017-Nov-17 06:30N 33°37' W 118°47'510.3
2017-Nov-17 06:00N 33°37' W 118°53'510.1
2017-Nov-17 05:30N 33°38' W 118°59'510.1
2017-Nov-17 04:58N 33°38' W 119°05'510.6
2017-Nov-17 04:30N 33°38' W 119°11'510.2
2017-Nov-17 04:00N 33°39' W 119°17'510.6
2017-Nov-17 03:30N 33°39' W 119°24'510.7
2017-Nov-17 03:00N 33°40' W 119°30'510.5
2017-Nov-17 02:30N 33°40' W 119°36'610.9
2017-Nov-17 02:00N 33°41' W 119°43'510.8
2017-Nov-17 01:30N 33°41' W 119°49'510.3
2017-Nov-17 01:00N 33°42' W 119°55'612.3
2017-Nov-17 00:30N 33°42' W 120°03'712.1
2017-Nov-16 23:57N 33°43' W 120°11'511.8
2017-Nov-16 23:30N 33°43' W 120°17'611.7
2017-Nov-16 23:00N 33°44' W 120°24'612.1
2017-Nov-16 22:30N 33°45' W 120°31'612.3
2017-Nov-16 22:00N 33°45' W 120°39'611.9
2017-Nov-16 21:30N 33°46' W 120°46'612.0
2017-Nov-16 21:00N 33°47' W 120°53'612.0
2017-Nov-16 20:30N 33°48' W 121°00'611.9
2017-Nov-16 20:00N 33°49' W 121°07'612.0
2017-Nov-16 19:30N 33°51' W 121°14'612.1
2017-Nov-16 19:00N 33°53' W 121°21'612.1
2017-Nov-16 18:30N 33°55' W 121°28'611.1
2017-Nov-16 18:00N 33°59' W 121°33'611.6
2017-Nov-16 17:30N 34°03' W 121°36'611.7
2017-Nov-16 17:00N 34°08' W 121°40'611.6
2017-Nov-16 16:30N 34°13' W 121°44'1011.5
2017-Nov-16 15:40N 34°22' W 121°49'311.6
2017-Nov-16 15:23N 34°25' W 121°51'512.1
2017-Nov-16 15:00N 34°29' W 121°53'612.1
2017-Nov-16 14:30N 34°34' W 121°57'711.9
2017-Nov-16 13:55N 34°40' W 122°01'13612.1
2017-Nov-16 02:43N 36°39' W 123°21'311.2
2017-Nov-16 02:25N 36°42' W 123°23'511.1
2017-Nov-16 01:59N 36°47' W 123°25'911.3
2017-Nov-16 01:11N 36°56' W 123°28'510.8
2017-Nov-16 00:42N 37°01' W 123°26'511.1
2017-Nov-16 00:17N 37°05' W 123°23'911.1
2017-Nov-15 23:31N 37°12' W 123°18'1511.5
2017-Nov-15 22:15N 37°25' W 123°10'311.5
2017-Nov-15 22:00N 37°28' W 123°08'611.5
2017-Nov-15 21:30N 37°33' W 123°05'611.4
2017-Nov-15 21:00N 37°36' W 122°59'611.9
2017-Nov-15 20:30N 37°40' W 122°53'611.9
2017-Nov-15 20:00N 37°43' W 122°47'611.4
2017-Nov-15 19:30N 37°46' W 122°40'611.2
2017-Nov-15 19:00N 37°47' W 122°34'611.7
2017-Nov-15 18:30N 37°50' W 122°27'4 7.4
2017-Nov-15 18:00N 37°54' W 122°26'5 9.4
2017-Nov-15 17:30N 37°59' W 122°26'5 9.2
2017-Nov-15 17:00N 38°02' W 122°22'5 9.4
2017-Nov-15 16:30N 38°04' W 122°17'4 7.7
2017-Nov-15 16:00N 38°03' W 122°12'4 6.7
2017-Nov-15 15:20N 38°03' W 122°06'0 0.3
2017-Nov-15 15:00N 38°03' W 122°06'0 0.0
2017-Nov-15 14:30N 38°03' W 122°06'0 0.0
2017-Nov-15 13:55N 38°03' W 122°06'0 0.0
2017-Nov-15 07:00N 38°03' W 122°06'0 0.0
2017-Nov-15 06:12N 38°03' W 122°06'0 0.0
2017-Nov-15 06:00N 38°03' W 122°06'0 0.0
2017-Nov-15 04:36N 38°03' W 122°06'0 0.0
2017-Nov-15 04:30N 38°03' W 122°06'  
Track history (hours):
 
Tides and Currents Weather Stations Pressure Air Temp Water Temp Dewpoint Dewpoint Depression Visibility Wind Speed Wind Dir Waves Ship Positions

Sea Reliance

Owner: Intrepid Ship Management, Seattle, WA. More information available from US FCC via Universal Licensing System and Coast Guard Vessel Documentation Center.

Last reported at 2017-Nov-25 04:00 UTC. Time now 2017-Nov-25 04:18 UTC.
Position N 33°41' W 119°52'.

Type: Ship. MMSI: 369567000.

Date/timePositionNaut miles runAvg speedWind from/ knotsBaromVisibWave heightAir tempDewpointWater temp
2017-Nov-25 04:00N 33°41' W 119°52'4 8.0
2017-Nov-25 03:30N 33°42' W 119°57'4 8.2
2017-Nov-25 03:00N 33°42' W 120°02'4 8.9
2017-Nov-25 02:30N 33°43' W 120°07'4 8.4
2017-Nov-25 02:00N 33°43' W 120°12'4 8.1
2017-Nov-25 01:30N 33°43' W 120°17'4 7.8
2017-Nov-25 01:00N 33°44' W 120°21'4 7.8
2017-Nov-25 00:30N 33°44' W 120°26'4 8.4
2017-Nov-25 00:00N 33°44' W 120°31'4 8.1
2017-Nov-24 23:30N 33°45' W 120°36'4 8.2
2017-Nov-24 23:00N 33°45' W 120°41'4 8.1
2017-Nov-24 22:30N 33°46' W 120°46'4 8.3
2017-Nov-24 21:59N 33°46' W 120°51'4 8.4
2017-Nov-24 21:30N 33°48' W 120°56'4 8.3
2017-Nov-24 21:00N 33°49' W 121°00'5 9.5
2017-Nov-24 20:28N 33°50' W 121°06'4 8.6
2017-Nov-24 20:00N 33°51' W 121°11'4 8.7
2017-Nov-24 19:30N 33°52' W 121°16'4 8.6
2017-Nov-24 18:59N 33°53' W 121°21'4 8.4
2017-Nov-24 18:29N 33°54' W 121°26'4 8.1
2017-Nov-24 18:00N 33°56' W 121°30'5 8.8
2017-Nov-24 17:28N 33°60' W 121°33'4 8.4
2017-Nov-24 17:00N 34°03' W 121°36'4 8.2
2017-Nov-24 16:30N 34°07' W 121°38'4 8.3
2017-Nov-24 16:00N 34°10' W 121°41'4 8.1
2017-Nov-24 15:30N 34°14' W 121°43'4 8.1
2017-Nov-24 15:00N 34°17' W 121°45'4 8.0
2017-Nov-24 14:30N 34°21' W 121°48'4 8.4
2017-Nov-24 13:59N 34°24' W 121°51'4 8.6
2017-Nov-24 13:30N 34°28' W 121°53'6 8.4
2017-Nov-24 12:50N 34°33' W 121°56'3 8.2
2017-Nov-24 12:30N 34°35' W 121°58'7 8.2
2017-Nov-24 11:41N 34°41' W 122°02'32 8.8
2017-Nov-24 08:01N 35°09' W 122°22'10 8.8
2017-Nov-24 06:50N 35°18' W 122°28'3 8.8
2017-Nov-24 06:29N 35°21' W 122°30'4 8.8
2017-Nov-24 06:00N 35°24' W 122°33'21 8.8
2017-Nov-24 03:37N 35°42' W 122°46'1 9.2
2017-Nov-24 03:30N 35°43' W 122°47'4 8.9
2017-Nov-24 03:00N 35°47' W 122°49'4 9.0
2017-Nov-24 02:30N 35°51' W 122°52'4 9.0
2017-Nov-24 02:00N 35°55' W 122°55'5 9.1
2017-Nov-24 01:30N 35°59' W 122°57'5 9.2
2017-Nov-24 01:00N 36°03' W 122°60'5 9.1
2017-Nov-24 00:29N 36°07' W 123°02'4 8.8
2017-Nov-24 00:00N 36°11' W 123°05'22 8.9
2017-Nov-23 21:32N 36°31' W 123°16'0 8.9
2017-Nov-23 21:30N 36°31' W 123°16'6 8.6
2017-Nov-23 20:51N 36°36' W 123°19'3 8.4
2017-Nov-23 20:30N 36°39' W 123°21'4 8.5
2017-Nov-23 19:59N 36°43' W 123°23'4 8.8
2017-Nov-23 19:30N 36°47' W 123°25'4 8.7
2017-Nov-23 19:00N 36°51' W 123°27'4 8.6
2017-Nov-23 18:30N 36°55' W 123°30'6 8.5
2017-Nov-23 17:50N 36°60' W 123°26'4 8.3
2017-Nov-23 17:25N 37°03' W 123°24'3 8.2
2017-Nov-23 17:00N 37°06' W 123°22'4 8.5
2017-Nov-23 16:30N 37°10' W 123°21'11 8.6
2017-Nov-23 15:16N 37°19' W 123°14'2 8.5
2017-Nov-23 15:00N 37°21' W 123°13'5 8.7
2017-Nov-23 14:29N 37°25' W 123°10'4 8.4
2017-Nov-23 14:00N 37°29' W 123°08'4 8.5
2017-Nov-23 13:30N 37°32' W 123°05'4 8.4
2017-Nov-23 13:00N 37°35' W 123°01'4 8.5
2017-Nov-23 12:30N 37°38' W 122°57'4 8.3
2017-Nov-23 12:00N 37°40' W 122°52'5 8.4
2017-Nov-23 11:24N 37°43' W 122°47'3 8.3
2017-Nov-23 11:00N 37°45' W 122°43'4 8.2
2017-Nov-23 10:30N 37°46' W 122°39'510.2
2017-Nov-23 10:00N 37°48' W 122°33'5 9.5
2017-Nov-23 09:30N 37°50' W 122°27'4 8.8
2017-Nov-23 09:00N 37°48' W 122°22'2 4.6
2017-Nov-23 08:31N 37°46' W 122°20'0 0.0
2017-Nov-23 08:00N 37°46' W 122°20'0 0.0
2017-Nov-23 07:30N 37°46' W 122°20'0 0.0
2017-Nov-23 07:00N 37°46' W 122°20'0 0.0
2017-Nov-23 06:31N 37°46' W 122°20'0 0.1
2017-Nov-23 06:01N 37°46' W 122°20'0 0.2
2017-Nov-23 05:30N 37°46' W 122°21'0 0.3
2017-Nov-23 05:00N 37°46' W 122°20'0 0.0
2017-Nov-23 04:30N 37°46' W 122°20'0 0.0
2017-Nov-23 04:00N 37°46' W 122°20'0 0.0
2017-Nov-23 03:30N 37°46' W 122°20'0 0.0
2017-Nov-23 03:00N 37°46' W 122°20'0 0.0
2017-Nov-23 02:30N 37°46' W 122°20'0 0.0
2017-Nov-23 02:00N 37°46' W 122°20'0 0.0
2017-Nov-23 01:30N 37°46' W 122°20'0 0.0
2017-Nov-23 01:00N 37°46' W 122°20'0 0.0
2017-Nov-23 00:31N 37°46' W 122°20'0 0.0
2017-Nov-23 00:00N 37°46' W 122°20'3 7.0
2017-Nov-22 23:31N 37°49' W 122°23'5 9.9
2017-Nov-22 23:00N 37°53' W 122°26'5 9.6
2017-Nov-22 22:30N 37°58' W 122°26'5 9.3
2017-Nov-22 22:00N 38°02' W 122°22'4 8.8
2017-Nov-22 21:30N 38°03' W 122°17'5 6.8
2017-Nov-22 20:49N 38°03' W 122°11'2 6.6
2017-Nov-22 20:29N 38°02' W 122°09'  
2017-Nov-20 00:30N 35°30' W 122°37'510.8
2017-Nov-20 00:00N 35°25' W 122°34'510.9
2017-Nov-19 23:30N 35°21' W 122°31'510.8
2017-Nov-19 23:00N 35°16' W 122°27'510.8
2017-Nov-19 22:30N 35°11' W 122°24'510.6
2017-Nov-19 22:00N 35°07' W 122°20'510.8
2017-Nov-19 21:30N 35°02' W 122°17'511.0
2017-Nov-19 21:00N 34°57' W 122°14'511.0
2017-Nov-19 20:30N 34°53' W 122°11'510.8
2017-Nov-19 20:01N 34°48' W 122°07'611.1
2017-Nov-19 19:30N 34°43' W 122°04'611.7
2017-Nov-19 19:00N 34°38' W 122°00'611.6
2017-Nov-19 18:30N 34°33' W 121°57'611.6
2017-Nov-19 17:59N 34°28' W 121°53'611.9
2017-Nov-19 17:30N 34°23' W 121°50'611.8
2017-Nov-19 17:00N 34°18' W 121°46'611.6
2017-Nov-19 16:29N 34°13' W 121°42'611.8
2017-Nov-19 16:00N 34°08' W 121°39'611.1
2017-Nov-19 15:30N 34°04' W 121°33'611.5
2017-Nov-19 15:00N 34°02' W 121°27'611.5
2017-Nov-19 14:30N 33°59' W 121°21'611.3
2017-Nov-19 14:00N 33°56' W 121°15'611.1
2017-Nov-19 13:28N 33°54' W 121°09'611.3
2017-Nov-19 12:57N 33°51' W 121°03'511.2
2017-Nov-19 12:30N 33°49' W 120°57'611.1
2017-Nov-19 12:00N 33°47' W 120°51'510.9
2017-Nov-19 11:30N 33°46' W 120°45'611.0
2017-Nov-19 11:00N 33°46' W 120°38'611.3
2017-Nov-19 10:29N 33°45' W 120°31'611.6
2017-Nov-19 10:00N 33°45' W 120°24'611.8
2017-Nov-19 09:30N 33°45' W 120°17'611.2
2017-Nov-19 09:00N 33°44' W 120°10'611.7
2017-Nov-19 08:29N 33°44' W 120°03'511.5
2017-Nov-19 08:00N 33°43' W 119°57'612.4
2017-Nov-19 07:30N 33°43' W 119°49'612.4
2017-Nov-19 07:00N 33°42' W 119°42'612.0
2017-Nov-19 06:29N 33°42' W 119°34'611.9
2017-Nov-19 06:00N 33°42' W 119°27'612.0
2017-Nov-19 05:30N 33°42' W 119°20'611.7
2017-Nov-19 04:57N 33°41' W 119°12'511.6
2017-Nov-19 04:29N 33°41' W 119°06'611.8
2017-Nov-19 04:00N 33°40' W 118°59'611.9
2017-Nov-19 03:30N 33°40' W 118°52'611.6
2017-Nov-19 02:57N 33°39' W 118°44'511.2
2017-Nov-19 02:30N 33°39' W 118°38'811.3
2017-Nov-19 01:45N 33°38' W 118°28'310.8
2017-Nov-19 01:30N 33°38' W 118°25'510.7
2017-Nov-19 01:00N 33°38' W 118°18'510.6
2017-Nov-19 00:30N 33°43' W 118°15'3 6.3
2017-Nov-19 00:00N 33°45' W 118°17'6 0.1
2017-Nov-17 09:20N 33°40' W 118°15'3 8.7
2017-Nov-17 09:00N 33°37' W 118°16'5 9.2
2017-Nov-17 08:30N 33°36' W 118°22'510.6
2017-Nov-17 08:00N 33°36' W 118°28'510.4
2017-Nov-17 07:30N 33°36' W 118°34'510.2
2017-Nov-17 07:00N 33°36' W 118°40'510.4
2017-Nov-17 06:30N 33°37' W 118°47'510.3
2017-Nov-17 06:00N 33°37' W 118°53'510.1
2017-Nov-17 05:30N 33°38' W 118°59'510.1
2017-Nov-17 04:58N 33°38' W 119°05'510.6
2017-Nov-17 04:30N 33°38' W 119°11'510.2
2017-Nov-17 04:00N 33°39' W 119°17'510.6
2017-Nov-17 03:30N 33°39' W 119°24'510.7
2017-Nov-17 03:00N 33°40' W 119°30'510.5
2017-Nov-17 02:30N 33°40' W 119°36'610.9
2017-Nov-17 02:00N 33°41' W 119°43'510.8
2017-Nov-17 01:30N 33°41' W 119°49'510.3
2017-Nov-17 01:00N 33°42' W 119°55'612.3
2017-Nov-17 00:30N 33°42' W 120°03'712.1
2017-Nov-16 23:57N 33°43' W 120°11'511.8
2017-Nov-16 23:30N 33°43' W 120°17'611.7
2017-Nov-16 23:00N 33°44' W 120°24'612.1
2017-Nov-16 22:30N 33°45' W 120°31'612.3
2017-Nov-16 22:00N 33°45' W 120°39'611.9
2017-Nov-16 21:30N 33°46' W 120°46'612.0
2017-Nov-16 21:00N 33°47' W 120°53'612.0
2017-Nov-16 20:30N 33°48' W 121°00'611.9
2017-Nov-16 20:00N 33°49' W 121°07'612.0
2017-Nov-16 19:30N 33°51' W 121°14'612.1
2017-Nov-16 19:00N 33°53' W 121°21'612.1
2017-Nov-16 18:30N 33°55' W 121°28'611.1
2017-Nov-16 18:00N 33°59' W 121°33'611.6
2017-Nov-16 17:30N 34°03' W 121°36'611.7
2017-Nov-16 17:00N 34°08' W 121°40'611.6
2017-Nov-16 16:30N 34°13' W 121°44'1011.5
2017-Nov-16 15:40N 34°22' W 121°49'311.6
2017-Nov-16 15:23N 34°25' W 121°51'512.1
2017-Nov-16 15:00N 34°29' W 121°53'612.1
2017-Nov-16 14:30N 34°34' W 121°57'711.9
2017-Nov-16 13:55N 34°40' W 122°01'13612.1
2017-Nov-16 02:43N 36°39' W 123°21'311.2
2017-Nov-16 02:25N 36°42' W 123°23'511.1
2017-Nov-16 01:59N 36°47' W 123°25'911.3
2017-Nov-16 01:11N 36°56' W 123°28'510.8
2017-Nov-16 00:42N 37°01' W 123°26'511.1
2017-Nov-16 00:17N 37°05' W 123°23'911.1
2017-Nov-15 23:31N 37°12' W 123°18'1511.5
2017-Nov-15 22:15N 37°25' W 123°10'311.5
2017-Nov-15 22:00N 37°28' W 123°08'611.5
2017-Nov-15 21:30N 37°33' W 123°05'611.4
2017-Nov-15 21:00N 37°36' W 122°59'611.9
2017-Nov-15 20:30N 37°40' W 122°53'611.9
2017-Nov-15 20:00N 37°43' W 122°47'611.4
2017-Nov-15 19:30N 37°46' W 122°40'611.2
2017-Nov-15 19:00N 37°47' W 122°34'611.7
2017-Nov-15 18:30N 37°50' W 122°27'4 7.4
2017-Nov-15 18:00N 37°54' W 122°26'5 9.4
2017-Nov-15 17:30N 37°59' W 122°26'5 9.2
2017-Nov-15 17:00N 38°02' W 122°22'5 9.4
2017-Nov-15 16:30N 38°04' W 122°17'4 7.7
2017-Nov-15 16:00N 38°03' W 122°12'4 6.7
2017-Nov-15 15:20N 38°03' W 122°06'0 0.3
2017-Nov-15 15:00N 38°03' W 122°06'0 0.0
2017-Nov-15 14:30N 38°03' W 122°06'0 0.0
2017-Nov-15 13:55N 38°03' W 122°06'0 0.0
2017-Nov-15 07:00N 38°03' W 122°06'0 0.0
2017-Nov-15 06:12N 38°03' W 122°06'0 0.0
2017-Nov-15 06:00N 38°03' W 122°06'0 0.0
2017-Nov-15 04:36N 38°03' W 122°06'0 0.0
2017-Nov-15 04:30N 38°03' W 122°06'  

Dump ship's entire track history